Time;durP1;ratioP1;P1;durP2;ratioP2;P2;SDS_P1;SDS_P2;PMS_P1;PMS_P2;Temp;Humidity;BMP_temperature;BMP_pressure;BME280_temperature;BME280_humidity;BME280_pressure;Samples;Min_cycle;Max_cycle;Signal;HPM_P1;HPM_P2
2021/09/03 00:01:05;;;;;;;49.53;33.80;;;14.90;88.70;;;;;;5000914;28;20050;-69
2021/09/03 00:03:31;;;;;;;48.65;34.97;;;14.90;88.80;;;;;;5001348;28;20121;-74
2021/09/03 00:05:59;;;;;;;47.33;32.10;;;14.80;88.90;;;;;;5010958;28;20064;-70
2021/09/03 00:08:25;;;;;;;50.50;33.03;;;14.80;88.90;;;;;;5044230;28;20372;-70
2021/09/03 00:10:51;;;;;;;48.58;31.40;;;14.80;89.00;;;;;;5021865;28;20125;-70
2021/09/03 00:13:17;;;;;;;51.33;33.67;;;14.80;89.10;;;;;;5001325;28;20448;-72
2021/09/03 00:15:43;;;;;;;53.30;33.28;;;14.80;89.00;;;;;;5034959;28;20091;-70
2021/09/03 00:18:08;;;;;;;50.63;31.08;;;14.80;89.00;;;;;;5017749;28;20064;-70
2021/09/03 00:20:34;;;;;;;50.47;31.00;;;14.80;89.00;;;;;;5018201;28;20165;-71
2021/09/03 00:23:00;;;;;;;54.08;31.83;;;14.70;89.00;;;;;;5017526;28;20046;-70
2021/09/03 00:25:26;;;;;;;52.92;32.47;;;14.70;89.00;;;;;;5016410;28;20052;-70
2021/09/03 00:27:52;;;;;;;48.75;32.58;;;14.70;89.20;;;;;;5018518;28;20065;-70
2021/09/03 00:30:18;;;;;;;52.75;32.17;;;14.70;89.10;;;;;;5017070;28;20388;-70
2021/09/03 00:32:44;;;;;;;45.13;30.23;;;14.70;89.10;;;;;;5014134;28;20030;-74
2021/09/03 00:35:09;;;;;;;49.42;32.53;;;14.70;89.00;;;;;;5019119;28;20030;-70
2021/09/03 00:37:35;;;;;;;49.67;31.77;;;14.70;89.10;;;;;;5019757;28;20048;-69
2021/09/03 00:40:02;;;;;;;53.00;32.28;;;14.70;89.10;;;;;;5018461;28;20042;-69
2021/09/03 00:42:27;;;;;;;48.40;31.90;;;14.70;89.20;;;;;;5023105;28;20128;-71
2021/09/03 00:44:53;;;;;;;49.20;31.05;;;14.70;89.10;;;;;;5017314;28;20690;-70
2021/09/03 00:47:19;;;;;;;46.90;31.38;;;14.70;89.10;;;;;;5017408;28;20481;-73
2021/09/03 00:49:44;;;;;;;47.30;29.88;;;14.60;89.20;;;;;;5019307;28;20033;-68
2021/09/03 00:52:11;;;;;;;45.03;30.73;;;14.60;89.10;;;;;;5021126;28;20041;-71
2021/09/03 00:54:37;;;;;;;47.85;31.13;;;14.60;89.10;;;;;;5016823;28;20048;-72
2021/09/03 00:57:03;;;;;;;44.40;30.42;;;14.60;89.10;;;;;;5018593;28;20408;-71
2021/09/03 00:59:29;;;;;;;48.03;30.30;;;14.60;89.10;;;;;;5017783;28;20045;-72
2021/09/03 01:01:55;;;;;;;51.42;31.45;;;14.60;89.00;;;;;;5018512;28;20036;-71
2021/09/03 01:04:21;;;;;;;45.50;30.13;;;14.60;89.00;;;;;;5019232;28;20148;-70
2021/09/03 01:06:47;;;;;;;46.53;29.88;;;14.60;89.10;;;;;;5016404;28;20073;-73
2021/09/03 01:09:13;;;;;;;51.00;32.15;;;14.50;89.20;;;;;;5017222;28;20176;-71
2021/09/03 01:11:38;;;;;;;48.83;30.95;;;14.50;89.40;;;;;;5016933;28;20029;-72
2021/09/03 01:14:04;;;;;;;52.22;32.58;;;14.50;89.40;;;;;;5018406;28;20046;-71
2021/09/03 01:16:30;;;;;;;48.88;32.75;;;14.40;89.60;;;;;;5017900;28;20092;-71
2021/09/03 01:18:57;;;;;;;55.58;32.22;;;14.30;89.70;;;;;;5017034;28;20049;-71
2021/09/03 01:21:23;;;;;;;46.42;30.67;;;14.40;89.70;;;;;;5019162;28;20056;-71
2021/09/03 01:23:49;;;;;;;51.55;32.25;;;14.40;89.80;;;;;;5009074;28;20489;-71
2021/09/03 01:26:15;;;;;;;53.92;32.53;;;14.30;89.80;;;;;;5021960;28;20056;-70
2021/09/03 01:28:41;;;;;;;51.10;32.55;;;14.30;89.90;;;;;;5016486;28;20088;-74
2021/09/03 01:31:06;;;;;;;49.53;31.85;;;14.30;90.00;;;;;;5017927;28;20536;-72
2021/09/03 01:33:32;;;;;;;50.20;32.17;;;14.30;90.00;;;;;;5001720;28;20760;-71
2021/09/03 01:35:58;;;;;;;52.30;32.65;;;14.30;90.00;;;;;;5007242;28;20473;-74
2021/09/03 01:38:23;;;;;;;52.10;32.85;;;14.30;89.90;;;;;;4998984;28;20517;-73
2021/09/03 01:40:49;;;;;;;54.72;33.28;;;14.20;90.00;;;;;;5001876;28;20045;-73
2021/09/03 01:43:15;;;;;;;51.50;32.88;;;14.20;90.00;;;;;;5001770;28;20034;-71
2021/09/03 01:45:41;;;;;;;53.63;33.58;;;14.10;90.10;;;;;;5000505;28;20044;-72
2021/09/03 01:48:07;;;;;;;54.38;33.33;;;14.10;90.10;;;;;;4999991;28;20042;-73
2021/09/03 01:50:33;;;;;;;51.15;34.35;;;14.10;90.20;;;;;;5011614;28;20079;-70
2021/09/03 01:52:59;;;;;;;49.05;32.33;;;14.10;90.20;;;;;;5008397;28;20030;-69
2021/09/03 01:55:24;;;;;;;55.90;33.05;;;14.10;90.20;;;;;;5003489;28;20496;-69
2021/09/03 01:57:50;;;;;;;51.05;34.15;;;14.10;90.30;;;;;;5002596;28;20061;-69
2021/09/03 02:00:16;;;;;;;51.50;32.92;;;14.10;90.30;;;;;;5011714;28;20036;-70
2021/09/03 02:02:42;;;;;;;51.28;33.70;;;14.10;90.20;;;;;;5019990;28;20329;-72
2021/09/03 02:05:09;;;;;;;57.92;35.03;;;14.10;90.20;;;;;;5005308;28;20061;-68
2021/09/03 02:07:35;;;;;;;52.70;33.00;;;14.10;90.30;;;;;;5002591;28;20034;-70
2021/09/03 02:10:02;;;;;;;53.22;33.25;;;14.10;90.20;;;;;;5001081;28;20044;-72
2021/09/03 02:12:28;;;;;;;54.50;33.90;;;14.10;90.40;;;;;;5006750;28;20109;-71
2021/09/03 02:14:53;;;;;;;54.63;35.00;;;14.00;90.40;;;;;;5010728;28;20172;-71
2021/09/03 02:17:19;;;;;;;54.45;34.08;;;14.00;90.40;;;;;;5002379;28;20133;-69
2021/09/03 02:19:44;;;;;;;51.67;34.47;;;14.00;90.40;;;;;;5001547;28;20389;-73
2021/09/03 02:22:10;;;;;;;54.65;34.38;;;14.00;90.40;;;;;;5002533;28;20045;-70
2021/09/03 02:24:36;;;;;;;54.25;34.60;;;13.90;90.50;;;;;;5001612;28;20042;-70
2021/09/03 02:27:02;;;;;;;51.08;33.60;;;13.90;90.50;;;;;;5009669;28;20037;-70
2021/09/03 02:29:28;;;;;;;52.50;34.35;;;13.90;90.50;;;;;;5011489;28;20043;-70
2021/09/03 02:31:54;;;;;;;53.80;34.85;;;13.90;90.50;;;;;;5024150;28;20393;-70
2021/09/03 02:34:21;;;;;;;52.67;33.75;;;13.90;90.50;;;;;;5017231;28;20096;-72
2021/09/03 02:36:47;;;;;;;49.95;34.13;;;14.00;90.50;;;;;;5015201;28;20416;-72
2021/09/03 02:39:13;;;;;;;54.35;34.55;;;13.90;90.30;;;;;;5010274;28;20050;-70
2021/09/03 02:41:38;;;;;;;50.22;32.45;;;13.90;90.40;;;;;;5002715;28;20040;-72
2021/09/03 02:44:04;;;;;;;53.97;34.30;;;13.80;90.30;;;;;;5010511;28;20045;-70
2021/09/03 02:46:30;;;;;;;49.10;33.88;;;13.80;90.40;;;;;;5021098;28;20476;-70
2021/09/03 02:48:55;;;;;;;50.95;35.13;;;13.80;90.40;;;;;;5021509;28;20491;-71
2021/09/03 02:51:21;;;;;;;49.95;33.22;;;13.70;90.60;;;;;;5021519;28;20052;-70
2021/09/03 02:53:47;;;;;;;52.20;32.78;;;13.70;90.60;;;;;;5019920;28;20034;-73
2021/09/03 02:56:12;;;;;;;51.55;34.65;;;13.70;90.60;;;;;;5032380;28;20041;-70
2021/09/03 02:58:38;;;;;;;58.97;35.35;;;13.70;90.60;;;;;;5020959;28;20042;-73
2021/09/03 03:01:04;;;;;;;53.95;35.08;;;13.70;90.60;;;;;;5021149;28;20180;-70
2021/09/03 03:03:29;;;;;;;53.78;36.10;;;13.70;90.70;;;;;;5023072;28;20760;-69
2021/09/03 03:05:55;;;;;;;53.72;36.78;;;13.70;90.60;;;;;;5021258;28;21429;-69
2021/09/03 03:08:21;;;;;;;55.00;36.00;;;13.70;90.60;;;;;;5019924;28;20869;-71
2021/09/03 03:10:47;;;;;;;59.42;36.40;;;13.70;90.60;;;;;;5020141;28;20036;-71
2021/09/03 03:13:26;;;;;;;55.20;36.90;;;13.60;90.70;;;;;;5018268;28;20037;-73
2021/09/03 03:15:52;;;;;;;58.40;36.78;;;13.60;90.80;;;;;;5020599;28;20048;-69
2021/09/03 03:18:18;;;;;;;53.50;36.53;;;13.60;90.80;;;;;;5012734;28;20045;-72
2021/09/03 03:20:46;;;;;;;51.75;35.42;;;13.70;90.80;;;;;;5020091;28;20033;-70
2021/09/03 03:23:11;;;;;;;51.72;36.00;;;13.60;90.70;;;;;;5020029;28;20632;-69
2021/09/03 03:25:37;;;;;;;55.65;37.17;;;13.60;90.80;;;;;;5019598;28;20071;-70
2021/09/03 03:28:03;;;;;;;51.90;35.60;;;13.60;90.70;;;;;;5016053;28;20041;-70
2021/09/03 03:30:29;;;;;;;55.17;36.33;;;13.60;90.80;;;;;;5019958;28;20045;-69
2021/09/03 03:32:54;;;;;;;50.78;34.72;;;13.60;90.90;;;;;;5000326;28;20037;-70
2021/09/03 03:35:22;;;;;;;59.55;36.83;;;13.60;90.80;;;;;;5000616;28;20034;-70
2021/09/03 03:37:48;;;;;;;54.25;37.00;;;13.60;91.00;;;;;;5006584;28;20107;-70
2021/09/03 03:40:14;;;;;;;57.60;37.58;;;13.60;91.00;;;;;;5000146;28;20045;-71
2021/09/03 03:42:40;;;;;;;55.03;36.42;;;13.50;90.90;;;;;;5014490;28;20034;-70
2021/09/03 03:45:06;;;;;;;53.65;34.53;;;13.50;91.00;;;;;;5009715;28;20393;-71
2021/09/03 03:47:32;;;;;;;59.00;37.95;;;13.50;91.00;;;;;;5007280;28;20446;-69
2021/09/03 03:49:57;;;;;;;56.63;37.42;;;13.50;90.90;;;;;;5001515;28;20036;-72
2021/09/03 03:52:23;;;;;;;54.85;35.35;;;13.40;90.90;;;;;;5007811;28;20033;-69
2021/09/03 03:54:48;;;;;;;62.78;38.08;;;13.40;91.00;;;;;;5006285;28;20034;-70
2021/09/03 03:57:14;;;;;;;52.33;36.35;;;13.40;91.10;;;;;;4998247;28;20055;-70
2021/09/03 03:59:40;;;;;;;55.05;37.55;;;13.40;91.20;;;;;;5006493;28;20036;-72
2021/09/03 04:02:06;;;;;;;51.70;36.05;;;13.40;91.20;;;;;;5001563;28;20034;-70
2021/09/03 04:04:32;;;;;;;54.63;37.80;;;13.40;91.10;;;;;;5002976;28;20103;-73
2021/09/03 04:06:57;;;;;;;48.67;35.45;;;13.40;91.00;;;;;;5012212;28;20172;-71
2021/09/03 04:09:23;;;;;;;54.22;38.30;;;13.40;91.00;;;;;;5003549;28;20042;-71
2021/09/03 04:11:50;;;;;;;54.35;36.40;;;13.40;91.00;;;;;;4999897;28;20100;-68
2021/09/03 04:14:16;;;;;;;49.85;34.92;;;13.40;91.00;;;;;;5006139;28;20431;-69
2021/09/03 04:16:42;;;;;;;52.33;34.78;;;13.30;91.00;;;;;;5019651;28;20045;-69
2021/09/03 04:19:08;;;;;;;59.70;35.45;;;13.30;91.00;;;;;;5006702;28;20046;-68
2021/09/03 04:21:33;;;;;;;55.85;36.33;;;13.30;91.00;;;;;;4999830;28;20057;-71
2021/09/03 04:23:59;;;;;;;57.75;35.22;;;13.30;90.80;;;;;;5007286;28;20446;-69
2021/09/03 04:26:25;;;;;;;53.83;36.13;;;13.30;90.80;;;;;;5007529;28;20897;-70
2021/09/03 04:28:50;;;;;;;52.67;34.80;;;13.30;90.80;;;;;;4997535;28;20559;-70
2021/09/03 04:31:16;;;;;;;57.58;36.15;;;13.30;90.90;;;;;;5001403;28;20046;-71
2021/09/03 04:33:41;;;;;;;60.25;37.88;;;13.20;90.80;;;;;;5012868;28;20030;-71
2021/09/03 04:36:07;;;;;;;60.20;37.17;;;13.20;91.10;;;;;;5015682;28;20057;-69
2021/09/03 04:38:33;;;;;;;56.05;37.53;;;13.10;91.20;;;;;;5015866;28;20053;-73
2021/09/03 04:40:59;;;;;;;59.92;38.95;;;13.10;91.40;;;;;;5017184;28;20397;-72
2021/09/03 04:43:25;;;;;;;59.50;37.58;;;13.10;91.40;;;;;;5019622;28;20029;-69
2021/09/03 04:45:51;;;;;;;56.88;36.72;;;13.10;91.50;;;;;;5015583;28;20057;-71
2021/09/03 04:48:17;;;;;;;57.00;36.35;;;13.10;91.60;;;;;;5019483;28;20033;-74
2021/09/03 04:50:43;;;;;;;60.50;39.00;;;13.10;91.60;;;;;;5019288;28;20030;-71
2021/09/03 04:53:08;;;;;;;60.15;38.50;;;13.10;91.60;;;;;;5018352;28;20144;-71
2021/09/03 04:55:34;;;;;;;60.08;38.22;;;13.00;91.60;;;;;;5019854;28;20075;-70
2021/09/03 04:58:00;;;;;;;56.75;37.80;;;13.00;91.70;;;;;;5019588;28;20053;-72
2021/09/03 05:00:26;;;;;;;58.20;38.58;;;13.00;91.70;;;;;;5030926;28;20041;-69
2021/09/03 05:02:51;;;;;;;54.47;36.95;;;13.10;91.70;;;;;;5018806;28;20345;-70
2021/09/03 05:05:18;;;;;;;56.08;36.50;;;13.10;91.70;;;;;;5019538;28;20465;-69
2021/09/03 05:07:44;;;;;;;55.80;36.72;;;13.10;91.70;;;;;;5016485;28;20488;-70
2021/09/03 05:10:11;;;;;;;52.20;35.10;;;13.10;91.60;;;;;;5017318;28;20029;-72
2021/09/03 05:12:37;;;;;;;57.50;38.58;;;13.10;91.40;;;;;;5018864;28;20034;-70
2021/09/03 05:15:09;;;;;;;51.85;36.95;;;13.10;91.40;;;;;;5016364;28;20132;-69
2021/09/03 05:17:35;;;;;;;60.08;37.22;;;13.10;91.40;;;;;;5016738;28;20052;-71
2021/09/03 05:20:00;;;;;;;53.22;34.90;;;13.10;91.30;;;;;;5018842;28;20226;-72
2021/09/03 05:22:26;;;;;;;57.58;35.83;;;13.10;91.30;;;;;;5018552;28;20756;-71
2021/09/03 05:24:52;;;;;;;51.20;35.25;;;13.10;91.30;;;;;;5012976;28;20050;-71
2021/09/03 05:27:19;;;;;;;56.38;36.65;;;13.20;91.20;;;;;;5017920;28;20516;-80
2021/09/03 05:29:45;;;;;;;55.33;36.13;;;13.20;91.20;;;;;;5017338;28;20033;-70
2021/09/03 05:32:10;;;;;;;109.18;43.50;;;13.30;91.20;;;;;;5016737;28;20068;-69
2021/09/03 05:34:36;;;;;;;73.68;37.45;;;13.30;91.10;;;;;;5016438;28;20056;-72
2021/09/03 05:37:02;;;;;;;57.90;36.10;;;13.30;91.00;;;;;;5016192;28;20088;-69
2021/09/03 05:39:27;;;;;;;56.95;36.95;;;13.40;90.90;;;;;;5018599;28;20055;-69
2021/09/03 05:41:53;;;;;;;58.80;38.20;;;13.40;90.80;;;;;;5015626;28;20030;-74
2021/09/03 05:44:19;;;;;;;50.55;34.85;;;13.40;90.80;;;;;;5026226;28;20056;-70
2021/09/03 05:46:44;;;;;;;57.47;35.25;;;13.50;90.70;;;;;;4998717;28;20044;-75
2021/09/03 05:49:10;;;;;;;54.17;35.47;;;13.60;90.50;;;;;;4992095;28;20117;-72
2021/09/03 05:51:36;;;;;;;55.00;34.45;;;13.60;90.40;;;;;;5006446;28;20030;-70
2021/09/03 05:54:07;;;;;;;54.88;35.25;;;13.60;90.30;;;;;;5014932;28;20034;-70
2021/09/03 05:56:33;;;;;;;63.42;36.83;;;13.60;90.20;;;;;;5003641;28;20054;-70
2021/09/03 05:58:59;;;;;;;55.35;36.47;;;13.60;90.10;;;;;;4995834;28;20103;-71
2021/09/03 06:01:25;;;;;;;59.85;37.40;;;13.60;90.20;;;;;;4998098;28;20034;-70
2021/09/03 06:03:50;;;;;;;57.30;37.85;;;13.70;90.20;;;;;;4998040;28;20089;-70
2021/09/03 06:06:16;;;;;;;58.70;39.38;;;13.60;90.20;;;;;;4996197;28;20026;-74
2021/09/03 06:08:41;;;;;;;58.83;39.63;;;13.60;90.30;;;;;;5012716;28;20088;-70
2021/09/03 06:11:07;;;;;;;59.88;40.63;;;13.70;90.50;;;;;;5016531;28;20064;-70
2021/09/03 06:13:33;;;;;;;55.45;38.15;;;13.60;90.50;;;;;;5016129;28;20069;-72
2021/09/03 06:15:59;;;;;;;60.70;40.42;;;13.70;90.60;;;;;;5023129;28;20088;-71
2021/09/03 06:18:24;;;;;;;60.92;40.13;;;13.80;90.60;;;;;;5022210;28;20489;-72
2021/09/03 06:20:50;;;;;;;58.17;39.10;;;13.80;90.60;;;;;;5022975;28;20039;-81
2021/09/03 06:23:16;;;;;;;59.58;40.28;;;13.90;90.40;;;;;;5038764;28;20040;-70
2021/09/03 06:25:41;;;;;;;59.53;39.47;;;14.00;90.40;;;;;;5019435;28;20049;-70
2021/09/03 06:28:08;;;;;;;61.13;38.90;;;14.00;90.50;;;;;;5020983;28;20053;-70
2021/09/03 06:30:34;;;;;;;59.80;39.17;;;14.10;90.40;;;;;;5017270;28;20439;-70
2021/09/03 06:32:59;;;;;;;58.42;39.08;;;14.10;90.20;;;;;;5020533;28;20046;-70
2021/09/03 06:35:25;;;;;;;55.47;38.67;;;14.20;90.00;;;;;;5018050;28;20095;-70
2021/09/03 06:37:50;;;;;;;57.80;39.42;;;14.30;90.10;;;;;;5020909;28;20393;-71
2021/09/03 06:40:16;;;;;;;58.70;40.58;;;14.40;89.90;;;;;;5020843;28;20082;-70
2021/09/03 06:42:42;;;;;;;59.97;40.70;;;14.40;89.50;;;;;;5019270;28;20041;-71
2021/09/03 06:45:09;;;;;;;55.50;38.15;;;14.50;89.40;;;;;;5019592;28;20170;-71
2021/09/03 06:47:35;;;;;;;60.75;38.25;;;14.60;89.40;;;;;;5020930;28;20107;-70
2021/09/03 06:50:01;;;;;;;58.97;39.92;;;14.70;89.30;;;;;;5019328;28;20046;-72
2021/09/03 06:52:30;;;;;;;58.15;40.65;;;14.80;89.10;;;;;;5020437;28;20393;-71
2021/09/03 06:54:59;;;;;;;60.20;38.28;;;14.90;88.90;;;;;;5019859;28;20037;-70
2021/09/03 06:57:26;;;;;;;52.20;37.80;;;15.00;88.60;;;;;;5019503;28;20068;-69
2021/09/03 06:59:52;;;;;;;57.00;38.47;;;15.10;88.30;;;;;;5020843;28;20384;-69
2021/09/03 07:02:18;;;;;;;55.72;39.10;;;15.10;88.00;;;;;;5020086;28;20116;-72
2021/09/03 07:04:44;;;;;;;56.72;38.33;;;15.10;87.90;;;;;;5021404;28;20112;-69
2021/09/03 07:07:09;;;;;;;54.97;38.28;;;15.20;87.90;;;;;;5019870;28;20037;-68
2021/09/03 07:09:35;;;;;;;54.25;39.58;;;15.30;87.40;;;;;;5019738;28;20091;-68
2021/09/03 07:12:01;;;;;;;53.72;38.95;;;15.30;87.70;;;;;;5019269;28;20096;-71
2021/09/03 07:14:26;;;;;;;58.30;40.85;;;15.40;87.60;;;;;;5022379;28;20037;-68
2021/09/03 07:16:52;;;;;;;50.92;39.17;;;15.60;86.70;;;;;;5017931;28;20049;-68
2021/09/03 07:19:19;;;;;;;54.53;38.20;;;15.80;86.10;;;;;;5018782;28;20469;-69
2021/09/03 07:21:45;;;;;;;44.67;35.97;;;16.00;86.40;;;;;;5018029;28;20065;-69
2021/09/03 07:24:11;;;;;;;55.53;37.92;;;16.10;85.20;;;;;;5031256;28;20452;-69
2021/09/03 07:26:37;;;;;;;57.20;39.55;;;16.40;85.20;;;;;;5015430;28;20533;-70
2021/09/03 07:29:04;;;;;;;48.67;37.97;;;16.50;84.60;;;;;;5019671;28;20049;-69
2021/09/03 07:31:30;;;;;;;50.67;39.22;;;16.50;84.40;;;;;;5013639;28;20041;-68
2021/09/03 07:33:56;;;;;;;52.00;39.63;;;16.60;84.20;;;;;;5014856;28;20484;-71
2021/09/03 07:36:21;;;;;;;52.45;40.00;;;16.50;84.10;;;;;;5015596;28;20045;-68
2021/09/03 07:38:47;;;;;;;57.05;41.80;;;16.60;83.90;;;;;;5015564;28;20042;-68
2021/09/03 07:41:13;;;;;;;55.42;42.60;;;16.60;84.40;;;;;;5014744;28;20033;-72
2021/09/03 07:43:39;;;;;;;51.72;40.53;;;16.80;84.30;;;;;;5014830;28;20041;-70
2021/09/03 07:46:04;;;;;;;53.88;40.67;;;16.90;84.00;;;;;;5015008;28;20034;-67
2021/09/03 07:48:30;;;;;;;52.20;41.20;;;17.10;83.90;;;;;;5015556;28;20102;-71
2021/09/03 07:50:56;;;;;;;49.80;40.15;;;17.50;82.90;;;;;;5016345;28;20076;-68
2021/09/03 07:53:21;;;;;;;51.67;40.83;;;17.60;82.10;;;;;;5013730;28;20164;-71
2021/09/03 07:55:47;;;;;;;50.03;40.13;;;17.70;81.60;;;;;;5014616;28;20045;-69
2021/09/03 07:58:13;;;;;;;55.83;42.53;;;17.80;81.10;;;;;;5014006;28;20037;-68
2021/09/03 08:00:39;;;;;;;51.95;39.08;;;17.90;81.30;;;;;;5012811;28;20061;-71
2021/09/03 08:03:05;;;;;;;59.67;41.28;;;18.00;80.60;;;;;;5015826;28;20052;-69
2021/09/03 08:05:31;;;;;;;49.00;38.50;;;18.30;79.70;;;;;;5012188;28;20037;-70
2021/09/03 08:07:57;;;;;;;45.90;36.78;;;18.40;80.00;;;;;;5017420;28;20048;-68
2021/09/03 08:10:23;;;;;;;48.92;38.47;;;18.60;80.10;;;;;;5015344;28;20109;-68
2021/09/03 08:12:50;;;;;;;46.00;36.95;;;18.60;78.10;;;;;;5013483;28;20041;-69
2021/09/03 08:15:16;;;;;;;48.53;38.33;;;18.60;77.90;;;;;;5014703;28;20064;-68
2021/09/03 08:17:42;;;;;;;45.45;37.03;;;18.50;78.30;;;;;;5011672;28;20124;-69
2021/09/03 08:20:10;;;;;;;47.00;37.05;;;18.60;78.20;;;;;;5013321;28;20112;-68
2021/09/03 08:22:36;;;;;;;48.13;38.40;;;18.70;76.90;;;;;;5015204;28;20048;-70
2021/09/03 08:25:03;;;;;;;47.92;37.95;;;18.70;77.60;;;;;;5013743;28;20057;-68
2021/09/03 08:27:28;;;;;;;48.03;36.28;;;18.70;78.30;;;;;;5018955;28;20817;-71
2021/09/03 08:29:54;;;;;;;48.78;36.22;;;18.90;77.50;;;;;;5015780;28;20588;-69
2021/09/03 08:32:20;;;;;;;47.08;36.28;;;19.20;77.00;;;;;;5018422;28;20042;-69
2021/09/03 08:34:45;;;;;;;43.55;35.30;;;19.40;76.10;;;;;;5013296;28;20080;-68
2021/09/03 08:37:11;;;;;;;45.20;36.15;;;19.50;76.20;;;;;;5009620;28;20033;-68
2021/09/03 08:39:37;;;;;;;43.70;35.28;;;19.60;75.70;;;;;;5008081;28;20060;-68
2021/09/03 08:42:03;;;;;;;42.50;34.92;;;19.50;75.70;;;;;;5011424;28;20037;-68
2021/09/03 08:44:30;;;;;;;46.67;35.60;;;19.60;77.30;;;;;;5009737;28;20493;-69
2021/09/03 08:46:56;;;;;;;40.22;33.28;;;19.90;75.70;;;;;;5010415;28;20033;-70
2021/09/03 08:49:23;;;;;;;45.33;33.22;;;20.10;74.30;;;;;;5013707;28;20481;-68
2021/09/03 08:51:49;;;;;;;42.38;33.70;;;20.20;74.40;;;;;;5016794;28;20025;-69
2021/09/03 08:54:15;;;;;;;41.90;32.70;;;20.40;73.00;;;;;;5018802;28;20069;-70
2021/09/03 08:56:40;;;;;;;38.22;31.65;;;20.60;72.30;;;;;;5012240;28;20109;-69
2021/09/03 08:59:06;;;;;;;42.13;30.02;;;20.90;71.90;;;;;;5010754;28;20046;-68
2021/09/03 09:01:32;;;;;;;41.60;32.28;;;21.20;72.00;;;;;;5017021;28;20060;-69
2021/09/03 09:04:15;;;;;;;34.90;28.42;;;21.10;70.70;;;;;;5017445;28;20103;-69
2021/09/03 09:07:03;;;;;;;36.60;28.65;;;21.10;70.50;;;;;;5016478;28;20030;-72
2021/09/03 09:09:31;;;;;;;36.30;28.67;;;21.50;69.30;;;;;;5011028;28;20134;-70
2021/09/03 09:12:05;;;;;;;39.45;30.35;;;21.70;69.10;;;;;;5009133;28;20045;-68
2021/09/03 09:15:03;;;;;;;35.30;27.75;;;21.50;67.80;;;;;;5009186;28;20044;-69
2021/09/03 09:17:30;;;;;;;33.80;29.52;;;21.40;68.00;;;;;;5007898;28;20049;-68
2021/09/03 09:19:56;;;;;;;38.30;30.25;;;21.60;68.30;;;;;;5001608;28;20042;-70
2021/09/03 09:22:22;;;;;;;36.80;28.60;;;21.50;68.60;;;;;;5008942;28;20030;-68
2021/09/03 09:24:48;;;;;;;38.28;27.40;;;21.50;69.40;;;;;;5012332;28;20495;-68
2021/09/03 09:27:27;;;;;;;35.70;26.40;;;21.70;68.30;;;;;;5009791;28;20041;-69
2021/09/03 09:29:53;;;;;;;35.63;26.45;;;21.60;67.50;;;;;;5008806;28;20124;-69
2021/09/03 09:32:25;;;;;;;31.60;24.77;;;21.40;67.60;;;;;;5008984;28;20073;-68
2021/09/03 09:34:55;;;;;;;30.85;24.20;;;21.80;68.60;;;;;;5010726;28;20034;-70
2021/09/03 09:37:21;;;;;;;29.38;23.67;;;22.00;66.50;;;;;;5010433;28;20157;-68
2021/09/03 09:39:49;;;;;;;26.23;23.38;;;22.30;64.50;;;;;;5012055;28;20030;-69
2021/09/03 09:42:22;;;;;;;29.58;22.75;;;22.30;64.60;;;;;;5006764;28;20050;-69
2021/09/03 09:45:05;;;;;;;32.28;25.05;;;22.60;65.10;;;;;;4996075;28;20043;-68
2021/09/03 09:47:30;;;;;;;30.02;23.10;;;22.60;63.60;;;;;;5009333;28;20080;-68
2021/09/03 09:49:56;;;;;;;28.90;23.40;;;22.40;64.00;;;;;;5007118;28;20093;-68
2021/09/03 09:52:48;;;;;;;28.77;23.20;;;22.50;64.50;;;;;;5016246;28;20037;-68
2021/09/03 09:55:14;;;;;;;32.60;24.33;;;22.80;64.10;;;;;;5018549;28;20533;-70
2021/09/03 09:57:42;;;;;;;30.60;23.38;;;23.10;63.10;;;;;;5002352;28;20034;-68
2021/09/03 10:00:09;;;;;;;29.23;23.58;;;23.00;63.00;;;;;;4997009;28;20037;-67
2021/09/03 10:02:37;;;;;;;28.58;22.55;;;23.00;62.90;;;;;;5015081;28;20030;-67
2021/09/03 10:05:04;;;;;;;25.73;20.25;;;23.20;61.50;;;;;;5017780;28;20057;-68
2021/09/03 10:07:31;;;;;;;31.00;24.02;;;23.20;63.00;;;;;;5014001;28;20052;-69
2021/09/03 10:09:57;;;;;;;25.05;21.55;;;23.50;60.90;;;;;;5017204;28;20072;-69
2021/09/03 10:12:23;;;;;;;30.88;21.83;;;23.20;62.50;;;;;;5007652;28;20128;-68
2021/09/03 10:14:49;;;;;;;25.48;20.63;;;23.30;61.20;;;;;;5005254;28;20120;-68
2021/09/03 10:17:15;;;;;;;28.60;21.95;;;23.50;61.70;;;;;;5012835;28;20034;-70
2021/09/03 10:19:41;;;;;;;27.88;21.55;;;23.50;61.00;;;;;;5019918;28;20048;-71
2021/09/03 10:22:13;;;;;;;27.73;21.20;;;23.60;61.90;;;;;;5011692;28;20045;-70
2021/09/03 10:24:42;;;;;;;28.55;21.88;;;23.40;62.10;;;;;;4995952;28;20042;-69
2021/09/03 10:27:09;;;;;;;30.90;23.55;;;23.50;61.60;;;;;;5001297;28;20060;-69
2021/09/03 10:29:40;;;;;;;29.35;21.25;;;23.60;60.60;;;;;;5023131;28;20853;-72
2021/09/03 10:32:12;;;;;;;23.40;18.65;;;23.70;61.90;;;;;;5013547;28;20117;-69
2021/09/03 10:34:40;;;;;;;24.58;19.52;;;23.90;60.20;;;;;;5015290;28;20116;-72
2021/09/03 10:37:12;;;;;;;24.70;19.02;;;24.30;59.00;;;;;;4995561;28;20135;-70
2021/09/03 10:39:48;;;;;;;22.52;17.85;;;23.90;58.90;;;;;;4996912;28;20069;-69
2021/09/03 10:42:36;;;;;;;25.75;18.23;;;24.00;60.60;;;;;;4995938;28;20104;-68
2021/09/03 10:45:05;;;;;;;24.98;17.98;;;24.10;59.50;;;;;;5001258;28;20046;-70
2021/09/03 10:47:45;;;;;;;23.17;18.15;;;24.20;59.50;;;;;;5005511;28;20049;-69
2021/09/03 10:50:28;;;;;;;23.13;18.55;;;24.10;59.20;;;;;;5001584;28;20039;-72
2021/09/03 10:53:06;;;;;;;20.77;15.97;;;24.50;59.20;;;;;;4996033;28;22100;-68
2021/09/03 10:55:50;;;;;;;24.83;18.48;;;24.60;57.80;;;;;;4996556;28;20100;-70
2021/09/03 10:58:35;;;;;;;;;;;24.50;56.80;;;;;;4995168;28;20052;-71
2021/09/03 11:01:09;;;;;;;23.92;17.50;;;24.80;57.20;;;;;;4993712;28;20400;-70
2021/09/03 11:03:47;;;;;;;21.00;16.65;;;25.00;55.70;;;;;;5014590;28;20045;-68
2021/09/03 11:06:33;;;;;;;19.77;15.20;;;24.80;56.00;;;;;;5018649;28;20117;-68
2021/09/03 11:09:05;;;;;;;20.85;15.27;;;25.10;56.00;;;;;;5011266;28;20049;-72
2021/09/03 11:11:36;;;;;;;21.48;16.20;;;25.40;54.70;;;;;;5022260;28;20221;-69
2021/09/03 11:14:15;;;;;;;19.17;14.80;;;25.70;55.60;;;;;;5000918;28;20107;-69
2021/09/03 11:16:43;;;;;;;20.98;16.20;;;25.90;55.40;;;;;;5011545;28;20701;-69
2021/09/03 11:19:24;;;;;;;21.63;16.88;;;25.90;54.90;;;;;;5016480;28;20069;-69
2021/09/03 11:21:58;;;;;;;21.27;16.67;;;26.10;54.20;;;;;;5008105;28;20152;-70
2021/09/03 11:24:30;;;;;;;19.95;16.85;;;25.90;51.80;;;;;;5006267;28;20045;-68
2021/09/03 11:26:58;;;;;;;21.67;17.20;;;25.10;54.00;;;;;;5000413;28;20526;-68
2021/09/03 11:29:33;;;;;;;24.75;17.50;;;25.10;54.10;;;;;;4998886;28;20164;-68
2021/09/03 11:32:17;;;;;;;17.40;15.50;;;25.20;54.00;;;;;;5019961;28;20037;-70
2021/09/03 11:34:45;;;;;;;22.08;16.92;;;25.50;53.80;;;;;;5010824;28;20041;-69
2021/09/03 11:37:24;;;;;;;23.15;17.30;;;25.40;54.50;;;;;;5003516;28;20068;-70
2021/09/03 11:39:51;;;;;;;22.90;18.23;;;25.00;53.90;;;;;;4998644;28;20060;-68
2021/09/03 11:42:22;;;;;;;23.83;17.58;;;24.90;55.40;;;;;;4995756;28;20038;-69
2021/09/03 11:44:56;;;;;;;20.33;16.67;;;25.00;55.50;;;;;;5006169;28;20029;-68
2021/09/03 11:47:26;;;;;;;;;;;25.60;54.70;;;;;;5009777;28;20104;-71
2021/09/03 11:49:52;;;;;;;22.40;16.77;;;25.60;52.20;;;;;;5013228;28;19959;-69
2021/09/03 11:52:24;;;;;;;23.55;17.75;;;25.30;52.90;;;;;;5011043;28;20112;-69
2021/09/03 11:54:50;;;;;;;24.27;17.65;;;25.30;52.70;;;;;;5018361;28;20033;-69
2021/09/03 11:57:16;;;;;;;22.98;17.95;;;25.60;53.70;;;;;;5017094;28;20040;-70
2021/09/03 12:00:02;;;;;;;17.60;14.98;;;25.50;52.70;;;;;;5021960;28;20045;-69
2021/09/03 12:02:29;;;;;;;18.75;14.63;;;25.70;51.80;;;;;;4999130;28;20058;-68
2021/09/03 12:04:57;;;;;;;19.45;15.52;;;25.60;53.30;;;;;;5008800;28;20048;-69
2021/09/03 12:07:24;;;;;;;18.80;15.35;;;25.90;52.40;;;;;;5022381;28;20061;-70
2021/09/03 12:09:55;;;;;;;22.25;17.50;;;26.20;52.20;;;;;;4999259;28;20038;-70
2021/09/03 12:12:26;;;;;;;22.40;17.83;;;26.20;51.60;;;;;;4998069;28;20034;-69
2021/09/03 12:15:00;;;;;;;18.92;15.45;;;26.10;51.00;;;;;;4999612;28;20120;-69
2021/09/03 12:17:42;;;;;;;20.90;17.65;;;26.10;51.40;;;;;;4998651;28;20063;-69
2021/09/03 12:20:13;;;;;;;20.50;16.25;;;25.40;52.50;;;;;;4996673;28;20045;-72
2021/09/03 12:22:55;;;;;;;22.67;19.58;;;25.30;53.60;;;;;;5007462;28;20026;-69
2021/09/03 12:25:33;;;;;;;20.13;14.88;;;25.50;53.50;;;;;;5002192;28;20046;-68
2021/09/03 12:28:28;;;;;;;21.65;16.58;;;25.90;52.30;;;;;;5001341;28;20596;-70
2021/09/03 12:30:54;;;;;;;22.38;16.88;;;25.60;53.00;;;;;;4989711;28;20033;-73